Time;durP1;ratioP1;P1;durP2;ratioP2;P2;SDS_P1;SDS_P2;PMS_P1;PMS_P2;Temp;Humidity;BMP_temperature;BMP_pressure;BME280_temperature;BME280_humidity;BME280_pressure;Samples;Min_cycle;Max_cycle;Signal;HPM_P1;HPM_P2
2022/03/04 01:11:02;;;;;;;16.52;9.48;;;0.80;77.60;;;;;;5056403;28;20676;-80
2022/03/04 01:13:28;;;;;;;13.15;10.50;;;0.70;77.60;;;;;;5058322;28;20208;-80
2022/03/04 01:15:56;;;;;;;11.90;9.40;;;0.70;78.00;;;;;;5057907;28;20589;-80
2022/03/04 01:18:24;;;;;;;11.40;9.98;;;0.70;78.50;;;;;;5057958;28;20220;-79
2022/03/04 01:20:51;;;;;;;13.73;9.27;;;0.70;78.80;;;;;;5057759;28;20213;-79
2022/03/04 01:23:18;;;;;;;12.10;9.70;;;0.60;78.80;;;;;;5057968;28;20573;-80
2022/03/04 01:25:44;;;;;;;14.02;11.02;;;0.70;79.30;;;;;;5057676;28;20584;-80
2022/03/04 01:28:12;;;;;;;14.23;9.77;;;0.60;79.50;;;;;;5058162;28;20222;-80
2022/03/04 01:30:39;;;;;;;13.02;9.00;;;0.60;79.90;;;;;;5057321;28;20677;-80
2022/03/04 01:33:07;;;;;;;10.90;9.50;;;0.60;80.10;;;;;;5057132;28;20217;-80
2022/03/04 01:35:34;;;;;;;15.35;10.27;;;0.60;80.20;;;;;;5057749;28;20213;-80
2022/03/04 01:38:01;;;;;;;14.82;10.05;;;0.60;80.70;;;;;;5057844;28;20279;-82
2022/03/04 01:40:28;;;;;;;20.38;10.00;;;0.60;80.80;;;;;;5058224;28;20203;-82
2022/03/04 01:42:55;;;;;;;13.70;9.52;;;0.50;81.10;;;;;;5057863;28;20225;-79
2022/03/04 01:45:23;;;;;;;11.13;9.82;;;0.50;81.50;;;;;;5058202;28;20205;-79
2022/03/04 01:47:50;;;;;;;12.80;9.85;;;0.50;81.90;;;;;;5059486;28;20240;-82
2022/03/04 01:50:17;;;;;;;10.68;9.68;;;0.50;82.60;;;;;;5057932;28;20208;-82
2022/03/04 01:52:43;;;;;;;13.30;10.48;;;0.50;82.80;;;;;;5057098;28;20205;-79
2022/03/04 01:55:11;;;;;;;12.20;10.10;;;0.40;83.20;;;;;;5057602;28;20212;-79
2022/03/04 01:57:39;;;;;;;14.23;10.07;;;0.50;83.80;;;;;;5056800;28;20221;-79
2022/03/04 02:00:09;;;;;;;14.68;9.63;;;0.50;84.40;;;;;;5057988;28;20221;-77
2022/03/04 02:02:37;;;;;;;14.25;12.10;;;0.40;84.80;;;;;;5057662;28;20214;-79
2022/03/04 02:05:05;;;;;;;12.48;9.77;;;0.30;85.10;;;;;;5060235;28;20206;-79
2022/03/04 02:07:31;;;;;;;14.70;9.90;;;0.40;85.40;;;;;;5061440;28;20222;-79
2022/03/04 02:09:58;;;;;;;15.00;9.40;;;0.40;85.00;;;;;;5061958;28;20702;-79
2022/03/04 02:12:25;;;;;;;12.40;10.00;;;0.30;85.00;;;;;;5060905;28;20205;-79
2022/03/04 02:14:51;;;;;;;12.82;9.55;;;0.30;85.50;;;;;;5061624;28;20213;-79
2022/03/04 02:17:18;;;;;;;13.00;10.43;;;0.30;85.40;;;;;;5061263;28;20232;-82
2022/03/04 02:19:52;;;;;;;15.30;10.50;;;0.30;85.50;;;;;;5061035;28;20236;-80
2022/03/04 02:22:21;;;;;;;11.27;10.07;;;0.10;85.60;;;;;;5042655;28;20203;-80
2022/03/04 02:24:47;;;;;;;12.60;9.95;;;0.20;86.00;;;;;;5059476;28;20197;-75
2022/03/04 02:27:14;;;;;;;13.02;8.77;;;0.20;85.90;;;;;;5080805;28;20245;-76
2022/03/04 02:29:41;;;;;;;10.32;8.30;;;0.20;85.60;;;;;;5071654;28;20197;-80
2022/03/04 02:32:08;;;;;;;12.73;9.25;;;0.20;85.70;;;;;;5062188;28;20205;-80
2022/03/04 02:34:35;;;;;;;13.52;11.88;;;0.20;85.50;;;;;;5062443;28;20206;-81
2022/03/04 02:37:02;;;;;;;12.10;10.85;;;0.10;85.70;;;;;;5061731;28;20236;-80
2022/03/04 02:39:30;;;;;;;13.93;8.65;;;0.10;85.70;;;;;;5061925;28;20226;-78
2022/03/04 02:41:57;;;;;;;11.70;10.13;;;0.00;85.70;;;;;;5061817;28;20202;-80
2022/03/04 02:44:24;;;;;;;13.73;8.73;;;-0.10;85.60;;;;;;5061356;28;20574;-80
2022/03/04 02:46:51;;;;;;;13.02;11.35;;;0.00;85.90;;;;;;5061579;28;20238;-79
2022/03/04 02:49:17;;;;;;;14.30;10.32;;;-0.10;86.60;;;;;;5045772;28;20198;-80
2022/03/04 02:51:44;;;;;;;12.52;10.73;;;-0.10;86.80;;;;;;5060689;28;20210;-80
2022/03/04 02:54:11;;;;;;;14.90;9.85;;;0.00;87.10;;;;;;5061664;28;20205;-80
2022/03/04 02:56:39;;;;;;;12.93;10.55;;;-0.10;87.40;;;;;;5061908;28;20601;-80
2022/03/04 02:59:06;;;;;;;15.70;12.07;;;-0.10;87.80;;;;;;5063771;28;20226;-80
2022/03/04 03:01:32;;;;;;;13.07;10.48;;;-0.10;88.00;;;;;;5062466;28;20210;-80
2022/03/04 03:03:59;;;;;;;13.88;10.98;;;-0.10;88.60;;;;;;5061533;28;20200;-81
2022/03/04 03:06:26;;;;;;;16.48;13.07;;;-0.20;89.10;;;;;;5060859;28;20630;-80
2022/03/04 03:08:53;;;;;;;11.73;10.13;;;-0.30;89.40;;;;;;5061415;28;20198;-80
2022/03/04 03:11:19;;;;;;;11.55;10.23;;;-0.20;90.00;;;;;;5060466;28;20205;-79
2022/03/04 03:13:47;;;;;;;16.00;12.30;;;-0.20;90.10;;;;;;5071782;28;20197;-77
2022/03/04 03:16:14;;;;;;;12.23;9.98;;;-0.20;90.10;;;;;;5076865;28;20194;-77
2022/03/04 03:18:41;;;;;;;14.40;11.73;;;-0.20;90.20;;;;;;5073094;28;20266;-80
2022/03/04 03:21:08;;;;;;;16.17;11.50;;;-0.20;90.20;;;;;;5062348;28;20215;-78
2022/03/04 03:23:34;;;;;;;11.23;10.13;;;-0.20;90.30;;;;;;5061606;28;20210;-80
2022/03/04 03:26:01;;;;;;;16.70;10.85;;;-0.20;90.40;;;;;;5072371;28;20216;-77
2022/03/04 03:28:28;;;;;;;11.50;10.30;;;-0.20;90.50;;;;;;5078359;28;20216;-77
2022/03/04 03:30:56;;;;;;;14.82;10.80;;;-0.20;90.60;;;;;;5071875;28;20401;-80
2022/03/04 03:33:23;;;;;;;13.15;10.80;;;-0.20;90.80;;;;;;5061800;28;20206;-80
2022/03/04 03:35:54;;;;;;;15.90;10.88;;;-0.20;90.90;;;;;;5060811;28;20564;-80
2022/03/04 03:38:21;;;;;;;14.07;10.25;;;-0.20;90.90;;;;;;5075342;28;20229;-77
2022/03/04 03:40:48;;;;;;;16.73;11.52;;;-0.30;91.00;;;;;;5078594;28;20231;-78
2022/03/04 03:43:15;;;;;;;13.70;12.38;;;-0.30;91.10;;;;;;5071630;28;20210;-80
2022/03/04 03:45:42;;;;;;;12.63;10.45;;;-0.40;91.30;;;;;;5062248;28;20209;-80
2022/03/04 03:48:10;;;;;;;14.00;10.13;;;-0.30;91.60;;;;;;5060813;28;20236;-80
2022/03/04 03:50:38;;;;;;;13.68;10.98;;;-0.30;91.70;;;;;;5060722;28;20198;-80
2022/03/04 03:53:05;;;;;;;15.98;9.73;;;-0.40;91.60;;;;;;5040283;28;20206;-80
2022/03/04 03:55:32;;;;;;;11.95;10.55;;;-0.40;91.70;;;;;;5043249;28;20298;-80
2022/03/04 03:57:59;;;;;;;13.55;10.00;;;-0.40;91.80;;;;;;5061648;28;20237;-78
2022/03/04 04:00:26;;;;;;;14.65;10.80;;;-0.40;91.90;;;;;;5061591;28;20291;-80
2022/03/04 04:02:53;;;;;;;13.82;11.45;;;-0.40;92.00;;;;;;5061443;28;20210;-80
2022/03/04 04:05:21;;;;;;;17.30;11.10;;;-0.50;92.10;;;;;;5061186;28;20202;-80
2022/03/04 04:07:48;;;;;;;12.60;11.25;;;-0.40;92.30;;;;;;5060736;28;20222;-80
2022/03/04 04:10:15;;;;;;;15.90;10.70;;;-0.40;92.40;;;;;;5060557;28;20297;-81
2022/03/04 04:12:41;;;;;;;13.15;10.80;;;-0.40;92.40;;;;;;5061363;28;20221;-80
2022/03/04 04:15:08;;;;;;;14.88;10.63;;;-0.40;92.50;;;;;;5060998;28;20203;-81
2022/03/04 04:17:35;;;;;;;12.27;10.63;;;-0.40;92.60;;;;;;5060276;28;20255;-80
2022/03/04 04:20:02;;;;;;;15.52;11.82;;;-0.50;92.90;;;;;;5059766;28;20224;-80
2022/03/04 04:22:30;;;;;;;13.30;11.18;;;-0.50;93.20;;;;;;5060317;28;20212;-80
2022/03/04 04:24:57;;;;;;;14.88;11.05;;;-0.50;93.50;;;;;;5060163;28;20202;-81
2022/03/04 04:27:24;;;;;;;13.20;11.70;;;-0.50;93.50;;;;;;5060104;28;20230;-80
2022/03/04 04:29:50;;;;;;;16.30;11.63;;;-0.50;93.60;;;;;;5060205;28;20650;-81
2022/03/04 04:32:17;;;;;;;18.10;12.35;;;-0.60;93.80;;;;;;5059675;28;20212;-81
2022/03/04 04:34:44;;;;;;;15.82;10.25;;;-0.60;94.00;;;;;;5059419;28;20213;-80
2022/03/04 04:37:11;;;;;;;17.60;10.82;;;-0.50;94.10;;;;;;5059781;28;20225;-80
2022/03/04 04:39:39;;;;;;;14.25;11.00;;;-0.50;94.10;;;;;;5060144;28;20238;-81
2022/03/04 04:42:06;;;;;;;15.32;11.68;;;-0.50;94.20;;;;;;5060053;28;20239;-80
2022/03/04 04:44:33;;;;;;;12.30;10.93;;;-0.50;94.30;;;;;;5060204;28;20205;-81
2022/03/04 04:46:59;;;;;;;14.93;10.80;;;-0.50;94.30;;;;;;5060349;28;20248;-80
2022/03/04 04:49:26;;;;;;;15.00;11.45;;;-0.50;94.50;;;;;;5059581;28;20198;-80
2022/03/04 04:51:53;;;;;;;15.45;11.73;;;-0.50;94.70;;;;;;5059148;28;20212;-81
2022/03/04 04:54:20;;;;;;;16.30;11.00;;;-0.50;94.70;;;;;;5059157;28;20575;-80
2022/03/04 04:56:48;;;;;;;15.57;9.60;;;-0.50;94.60;;;;;;5058688;28;20222;-80
2022/03/04 04:59:15;;;;;;;12.93;11.43;;;-0.50;94.60;;;;;;5058566;28;20221;-80
2022/03/04 05:01:42;;;;;;;14.43;11.18;;;-0.50;94.60;;;;;;5058498;28;20216;-80
2022/03/04 05:04:09;;;;;;;18.65;11.15;;;-0.60;94.70;;;;;;5058716;28;20209;-80
2022/03/04 05:06:36;;;;;;;12.07;10.60;;;-0.60;94.70;;;;;;5058510;28;20229;-80
2022/03/04 05:09:02;;;;;;;14.93;11.55;;;-0.60;94.70;;;;;;5058478;28;20226;-79
2022/03/04 05:11:29;;;;;;;15.38;10.98;;;-0.60;94.80;;;;;;5058555;28;20201;-80
2022/03/04 05:13:57;;;;;;;15.35;12.77;;;-0.60;94.90;;;;;;5058432;28;20202;-80
2022/03/04 05:16:24;;;;;;;14.82;11.85;;;-0.60;95.10;;;;;;5059009;28;20237;-80
2022/03/04 05:18:51;;;;;;;19.27;11.93;;;-0.60;95.20;;;;;;5067795;28;20192;-76
2022/03/04 05:21:17;;;;;;;17.50;10.73;;;-0.70;95.10;;;;;;5077420;28;20221;-76
2022/03/04 05:24:03;;;;;;;14.27;10.55;;;-0.80;94.90;;;;;;5070017;28;20200;-80
2022/03/04 05:26:31;;;;;;;13.93;12.00;;;-0.80;95.00;;;;;;5062616;28;20256;-80
2022/03/04 05:29:00;;;;;;;15.02;10.77;;;-0.80;95.10;;;;;;5059363;28;20201;-80
2022/03/04 05:31:27;;;;;;;13.85;10.25;;;-0.90;95.10;;;;;;5058188;28;20225;-79
2022/03/04 05:33:55;;;;;;;12.65;11.40;;;-0.90;95.10;;;;;;5058342;28;20659;-80
2022/03/04 05:36:22;;;;;;;15.30;12.05;;;-1.10;95.30;;;;;;5057816;28;20249;-81
2022/03/04 05:38:49;;;;;;;11.85;9.77;;;-1.00;95.70;;;;;;5057072;28;20565;-81
2022/03/04 05:41:17;;;;;;;17.25;11.57;;;-1.00;95.70;;;;;;5058876;28;20212;-81
2022/03/04 05:43:44;;;;;;;15.60;10.57;;;-1.00;95.70;;;;;;5058587;28;20205;-80
2022/03/04 05:46:13;;;;;;;13.85;12.35;;;-1.00;95.60;;;;;;5057633;28;20265;-82
2022/03/04 05:48:40;;;;;;;12.82;10.18;;;-1.00;95.60;;;;;;5057605;28;20206;-80
2022/03/04 05:51:06;;;;;;;14.02;12.52;;;-1.00;95.70;;;;;;5058086;28;20229;-81
2022/03/04 05:53:34;;;;;;;21.92;13.02;;;-1.00;95.80;;;;;;5057844;28;20209;-81
2022/03/04 05:56:01;;;;;;;12.85;11.55;;;-1.10;95.80;;;;;;5056994;28;20571;-81
2022/03/04 05:58:28;;;;;;;15.18;12.30;;;-1.10;96.10;;;;;;5058019;28;20671;-82
2022/03/04 06:00:55;;;;;;;15.98;11.48;;;-1.10;96.50;;;;;;5057230;28;20221;-81
2022/03/04 06:03:23;;;;;;;15.23;11.80;;;-1.10;96.60;;;;;;5057927;28;20201;-80
2022/03/04 06:05:50;;;;;;;20.65;13.02;;;-1.20;96.80;;;;;;5058661;28;20210;-82
2022/03/04 06:08:17;;;;;;;17.85;12.65;;;-1.20;96.90;;;;;;5057459;28;20230;-81
2022/03/04 06:10:44;;;;;;;16.95;12.73;;;-1.20;97.00;;;;;;5058436;28;20267;-80
2022/03/04 06:13:11;;;;;;;18.13;12.68;;;-1.20;97.20;;;;;;5058669;28;20210;-80
2022/03/04 06:15:38;;;;;;;15.77;13.15;;;-1.20;97.40;;;;;;5057609;28;20220;-81
2022/03/04 06:18:05;;;;;;;17.70;13.02;;;-1.20;97.30;;;;;;5059225;28;20615;-81
2022/03/04 06:20:33;;;;;;;14.88;11.55;;;-1.30;97.50;;;;;;5059181;28;20732;-81
2022/03/04 06:22:59;;;;;;;17.48;12.85;;;-1.20;97.60;;;;;;5057832;28;20213;-81
2022/03/04 06:25:26;;;;;;;18.55;13.98;;;-1.30;97.50;;;;;;5058598;28;20221;-80
2022/03/04 06:27:55;;;;;;;15.90;11.65;;;-1.20;97.60;;;;;;5058901;28;20242;-80
2022/03/04 06:30:22;;;;;;;17.85;12.60;;;-1.10;97.70;;;;;;5057832;28;20209;-81
2022/03/04 06:33:29;;;;;;;19.40;12.45;;;-1.00;97.60;;;;;;5061271;28;20209;-80
2022/03/04 06:35:44;;;;;;;15.30;11.30;;;-0.90;97.70;;;;;;5057867;28;20233;-81
2022/03/04 06:38:12;;;;;;;17.50;14.40;;;-0.90;97.70;;;;;;5058136;28;20229;-80
2022/03/04 06:40:39;;;;;;;20.05;14.15;;;-1.10;97.80;;;;;;5057540;28;20224;-81
2022/03/04 06:43:06;;;;;;;15.05;12.80;;;-1.00;98.20;;;;;;5058334;28;20296;-81
2022/03/04 06:45:33;;;;;;;21.70;13.15;;;-0.90;98.30;;;;;;5057561;28;20206;-81
2022/03/04 06:47:59;;;;;;;17.52;14.10;;;-0.80;98.20;;;;;;5058098;28;20253;-79
2022/03/04 06:50:26;;;;;;;18.55;14.68;;;-0.70;98.20;;;;;;5057319;28;20583;-81
2022/03/04 06:52:55;;;;;;;20.70;14.45;;;-0.90;98.10;;;;;;5060758;28;20228;-80
2022/03/04 06:55:22;;;;;;;18.30;13.30;;;-0.80;98.50;;;;;;5062144;28;20284;-81
2022/03/04 06:57:51;;;;;;;21.65;13.80;;;-0.80;98.60;;;;;;5059981;28;20222;-81
2022/03/04 07:00:18;;;;;;;20.33;14.75;;;-0.80;98.70;;;;;;5061169;28;20258;-80
2022/03/04 07:02:45;;;;;;;22.85;14.50;;;-0.60;98.70;;;;;;5061584;28;20205;-81
2022/03/04 07:05:12;;;;;;;24.02;15.80;;;-0.50;98.60;;;;;;5061789;28;20209;-81
2022/03/04 07:07:39;;;;;;;19.13;13.90;;;-0.40;98.40;;;;;;5061419;28;20229;-81
2022/03/04 08:04:22;;;;;;;24.02;14.35;;;1.60;91.90;;;;;;5099900;28;20232;-81
2022/03/04 08:06:50;;;;;;;16.63;12.43;;;1.60;91.40;;;;;;5120275;28;20301;-81
2022/03/04 08:09:16;;;;;;;16.92;14.50;;;1.70;91.10;;;;;;5120898;28;20232;-82
2022/03/04 08:11:44;;;;;;;22.80;12.85;;;1.80;91.20;;;;;;5090141;28;20209;-83
2022/03/04 08:14:11;;;;;;;18.67;14.93;;;1.90;90.70;;;;;;5090002;28;20210;-81
2022/03/04 08:16:38;;;;;;;20.50;14.45;;;2.00;90.80;;;;;;5100954;28;20209;-81
2022/03/04 08:19:05;;;;;;;15.95;13.68;;;2.20;90.90;;;;;;5104409;28;20216;-82
2022/03/04 08:21:33;;;;;;;16.85;13.30;;;2.40;90.80;;;;;;5107189;28;20558;-82
2022/03/04 08:24:00;;;;;;;21.17;15.82;;;2.60;90.40;;;;;;5105363;28;20219;-81
2022/03/04 08:26:28;;;;;;;23.42;14.68;;;2.70;89.60;;;;;;5089837;28;20255;-82
2022/03/04 08:28:54;;;;;;;20.80;15.20;;;2.90;87.80;;;;;;5089183;28;20205;-82
2022/03/04 08:31:21;;;;;;;19.92;14.70;;;3.00;87.10;;;;;;5087899;28;20214;-82
2022/03/04 08:33:48;;;;;;;21.88;15.30;;;3.10;87.20;;;;;;5096003;28;20207;-83
2022/03/04 08:36:15;;;;;;;25.70;17.00;;;3.10;86.80;;;;;;5106048;28;20206;-83
2022/03/04 08:38:43;;;;;;;17.58;13.05;;;3.20;86.50;;;;;;5088466;28;20203;-82
2022/03/04 08:41:10;;;;;;;18.02;15.40;;;3.30;85.40;;;;;;5087690;28;20231;-82
2022/03/04 08:43:38;;;;;;;17.02;14.23;;;3.40;85.20;;;;;;5088179;28;20205;-81
2022/03/04 08:46:05;;;;;;;19.98;14.60;;;3.60;85.00;;;;;;5096729;28;20213;-82
2022/03/04 08:48:32;;;;;;;19.35;15.15;;;3.70;84.00;;;;;;5098889;28;20214;-82
2022/03/04 08:50:59;;;;;;;20.40;15.70;;;3.80;82.40;;;;;;5099195;28;20216;-83
2022/03/04 08:53:27;;;;;;;19.20;13.93;;;3.90;82.10;;;;;;5111227;28;20204;-82
2022/03/04 08:55:55;;;;;;;18.25;15.38;;;3.90;81.40;;;;;;5089530;28;20197;-83
2022/03/04 08:58:22;;;;;;;17.05;14.25;;;4.10;81.20;;;;;;5087697;28;20207;-83
2022/03/04 09:00:49;;;;;;;21.23;14.90;;;4.20;81.40;;;;;;5086137;28;20226;-83
2022/03/04 09:03:16;;;;;;;18.15;15.25;;;4.30;79.80;;;;;;5085453;28;20473;-83
2022/03/04 09:05:43;;;;;;;20.23;14.70;;;4.30;78.80;;;;;;5086957;28;20202;-83
2022/03/04 09:08:10;;;;;;;21.52;14.35;;;4.20;78.50;;;;;;5089914;28;20204;-83
2022/03/04 09:10:37;;;;;;;24.80;15.80;;;4.40;78.40;;;;;;5087431;28;20559;-83
2022/03/04 10:20:42;;;;;;;18.88;12.95;;;6.60;64.30;;;;;;4939741;28;20342;-83
2022/03/04 10:23:15;;;;;;;19.88;15.20;;;6.80;62.70;;;;;;5073241;28;20205;-82
2022/03/04 10:25:45;;;;;;;17.73;14.82;;;7.00;60.50;;;;;;5081871;28;20207;-83
2022/03/04 10:28:12;;;;;;;15.20;13.40;;;7.10;59.20;;;;;;5084003;28;20213;-83
2022/03/04 10:31:22;;;;;;;22.58;16.60;;;7.20;58.90;;;;;;5291335;22;20231;-83
2022/03/04 10:34:35;;;;;;;17.55;15.75;;;7.40;56.30;;;;;;5103437;28;20216;-83
2022/03/04 10:37:03;;;;;;;16.17;13.73;;;7.50;56.50;;;;;;5097542;28;20208;-82
2022/03/04 10:39:32;;;;;;;14.95;13.45;;;7.60;55.50;;;;;;5100985;28;20311;-82
2022/03/04 10:42:02;;;;;;;16.35;14.00;;;7.70;55.30;;;;;;5083559;28;20280;-82
2022/03/04 10:44:29;;;;;;;17.65;14.57;;;7.70;55.10;;;;;;5080787;28;20205;-81
2022/03/04 10:46:56;;;;;;;17.98;14.65;;;7.70;53.70;;;;;;5094455;28;20196;-82
2022/03/04 10:49:25;;;;;;;17.42;14.05;;;7.70;54.40;;;;;;5100165;28;20224;-82
2022/03/04 10:51:51;;;;;;;14.23;12.65;;;7.70;54.50;;;;;;5086245;28;20225;-82
2022/03/04 10:54:20;;;;;;;16.35;14.75;;;7.90;55.50;;;;;;5082222;28;20203;-82
2022/03/04 10:56:51;;;;;;;18.80;13.48;;;8.10;54.50;;;;;;5100971;28;20201;-83
2022/03/04 10:59:20;;;;;;;15.98;13.90;;;8.10;53.80;;;;;;5098159;28;20234;-81
2022/03/04 11:01:48;;;;;;;20.13;15.73;;;8.40;54.10;;;;;;5079973;28;20228;-81
2022/03/04 11:04:17;;;;;;;15.48;13.27;;;8.70;53.90;;;;;;5080728;28;21010;-83
2022/03/04 11:06:46;;;;;;;17.55;15.00;;;8.90;51.90;;;;;;5080472;28;20212;-82
2022/03/04 11:09:13;;;;;;;24.20;15.10;;;8.90;50.80;;;;;;5096514;28;20224;-82
2022/03/04 11:11:43;;;;;;;18.35;14.00;;;8.90;51.00;;;;;;5087881;28;20281;-81
2022/03/04 11:14:12;;;;;;;18.85;16.85;;;9.20;52.20;;;;;;5092690;28;20208;-81
2022/03/04 11:16:39;;;;;;;17.80;15.85;;;9.40;51.00;;;;;;5088516;28;20636;-83
2022/03/04 11:19:06;;;;;;;19.85;14.75;;;9.90;52.20;;;;;;5085961;28;20207;-82
2022/03/04 11:21:33;;;;;;;15.73;13.87;;;10.20;49.50;;;;;;5097388;28;20201;-81
2022/03/04 11:24:00;;;;;;;17.03;15.10;;;11.30;49.80;;;;;;5081222;28;20450;-82
2022/03/04 11:26:31;;;;;;;16.77;13.20;;;11.50;45.00;;;;;;5090891;28;20450;-83
2022/03/04 11:29:01;;;;;;;17.80;15.90;;;12.20;46.40;;;;;;5098691;28;20471;-83
2022/03/04 11:31:30;;;;;;;20.63;16.37;;;12.70;44.90;;;;;;5099925;28;20481;-82
2022/03/04 11:33:58;;;;;;;15.43;14.00;;;13.40;44.20;;;;;;5090569;28;20455;-82
2022/03/04 11:36:26;;;;;;;16.33;14.47;;;13.60;42.00;;;;;;5080669;28;20454;-83
2022/03/04 11:39:02;;;;;;;15.63;12.47;;;13.70;40.20;;;;;;5089752;28;20481;-82
2022/03/04 11:42:00;;;;;;;16.00;14.30;;;14.00;38.90;;;;;;5099996;28;20438;-81
2022/03/04 11:44:29;;;;;;;16.87;13.70;;;13.50;38.80;;;;;;5101472;28;20431;-81
2022/03/04 11:50:29;;;;;;;19.77;14.73;;;13.40;38.50;;;;;;5080313;28;20786;-82
2022/03/04 11:53:43;;;;;;;15.37;13.77;;;13.50;39.80;;;;;;5097327;28;20478;-82
2022/03/04 11:56:14;;;;;;;18.60;15.57;;;14.30;40.10;;;;;;5095019;28;20470;-83
2022/03/04 11:59:09;;;;;;;16.10;14.27;;;15.20;38.10;;;;;;5081700;28;20533;-84
2022/03/04 12:01:39;;;;;;;18.17;15.97;;;15.80;36.70;;;;;;5085129;28;20825;-84
2022/03/04 12:04:07;;;;;;;15.83;14.10;;;16.40;35.90;;;;;;5102307;28;20450;-83
2022/03/04 12:06:33;;;;;;;17.07;15.30;;;16.70;36.00;;;;;;5101937;28;20444;-83
2022/03/04 12:09:27;;;;;;;16.00;14.40;;;17.20;35.20;;;;;;5104147;28;20778;-84
2022/03/04 12:12:13;;;;;;;17.03;15.20;;;18.10;35.50;;;;;;5100273;28;20473;-85
2022/03/04 12:14:42;;;;;;;18.47;16.60;;;18.70;33.40;;;;;;5104478;28;20447;-84
2022/03/04 12:17:10;;;;;;;17.33;15.67;;;18.60;32.20;;;;;;5104589;28;20810;-84
2022/03/04 12:19:38;;;;;;;17.30;15.50;;;18.60;32.10;;;;;;5103272;28;20472;-84
2022/03/04 12:22:07;;;;;;;17.73;15.90;;;18.20;31.30;;;;;;5102597;28;20443;-82
2022/03/04 12:24:36;;;;;;;16.33;14.47;;;17.30;32.10;;;;;;5107518;28;20456;-83
2022/03/04 12:27:04;;;;;;;14.90;13.37;;;16.60;31.90;;;;;;5092601;28;20444;-83
2022/03/04 12:29:42;;;;;;;15.27;13.77;;;16.70;32.30;;;;;;5091490;28;20496;-85
2022/03/04 12:32:11;;;;;;;17.17;15.57;;;17.30;33.50;;;;;;5100965;28;20514;-83
2022/03/04 12:34:42;;;;;;;18.87;17.00;;;17.60;32.70;;;;;;5093246;28;20455;-82
2022/03/04 12:37:14;;;;;;;18.40;15.30;;;17.40;33.00;;;;;;5100815;28;20515;-83
2022/03/04 12:39:43;;;;;;;17.83;16.13;;;17.90;32.20;;;;;;5100099;28;20475;-84
2022/03/04 12:42:10;;;;;;;17.10;15.30;;;18.50;31.90;;;;;;5099453;28;20517;-83
2022/03/04 12:44:38;;;;;;;19.93;16.87;;;18.80;30.70;;;;;;5095269;28;20450;-84
2022/03/04 12:47:05;;;;;;;18.33;16.63;;;19.10;31.10;;;;;;5099020;28;20454;-83
2022/03/04 12:49:34;;;;;;;19.27;17.33;;;19.80;31.60;;;;;;5082838;28;20578;-84
2022/03/04 12:52:00;;;;;;;18.77;17.00;;;20.20;31.00;;;;;;5078205;28;20486;-84
2022/03/04 12:54:31;;;;;;;18.90;16.90;;;19.90;29.90;;;;;;5077509;28;20463;-84
2022/03/04 12:56:59;;;;;;;18.43;16.47;;;20.00;29.80;;;;;;5079070;28;20451;-83
2022/03/04 12:59:28;;;;;;;18.57;16.67;;;19.80;29.50;;;;;;5091628;28;20467;-85
2022/03/04 13:01:55;;;;;;;22.00;17.37;;;19.50;29.10;;;;;;5098426;28;20453;-85
2022/03/04 13:04:24;;;;;;;19.57;17.80;;;19.20;29.90;;;;;;5086333;28;20816;-84
2022/03/04 13:06:59;;;;;;;19.07;17.10;;;19.40;30.00;;;;;;5083727;28;20542;-84
2022/03/04 13:09:26;;;;;;;17.93;16.27;;;19.70;29.70;;;;;;5097260;28;20476;-82
2022/03/04 13:11:54;;;;;;;19.40;17.60;;;19.90;29.60;;;;;;5095477;28;20836;-84
2022/03/04 13:14:22;;;;;;;18.83;16.83;;;20.40;29.60;;;;;;5096521;28;20458;-82
2022/03/04 13:16:52;;;;;;;17.20;15.50;;;20.90;29.20;;;;;;5097475;28;20450;-84
2022/03/04 13:19:22;;;;;;;18.60;15.53;;;21.20;27.80;;;;;;5097383;28;20482;-84
2022/03/04 13:21:51;;;;;;;17.90;16.20;;;21.60;27.60;;;;;;5090309;28;20444;-83
2022/03/04 13:24:28;;;;;;;16.33;14.73;;;21.70;27.80;;;;;;5077333;28;20495;-83
2022/03/04 13:26:57;;;;;;;17.17;14.97;;;21.60;28.00;;;;;;5083303;28;20457;-83
2022/03/04 13:29:25;;;;;;;16.33;14.60;;;22.00;27.60;;;;;;5096975;28;20876;-83
2022/03/04 13:31:53;;;;;;;17.27;13.27;;;22.00;26.70;;;;;;5075470;28;20492;-83
2022/03/04 13:34:30;;;;;;;15.17;13.57;;;21.10;26.20;;;;;;5090694;28;20481;-83
2022/03/04 13:37:00;;;;;;;16.90;15.20;;;20.90;26.90;;;;;;5093096;28;20447;-82
2022/03/04 13:39:31;;;;;;;16.67;14.87;;;20.40;27.50;;;;;;5109581;28;20466;-82
2022/03/04 13:42:13;;;;;;;15.77;14.17;;;20.70;27.50;;;;;;5100516;28;20444;-82
2022/03/04 13:45:01;;;;;;;15.80;14.30;;;19.50;26.10;;;;;;5089356;28;20613;-82
2022/03/04 13:47:39;;;;;;;17.47;15.67;;;19.10;27.10;;;;;;5098423;28;20525;-84
2022/03/04 13:50:09;;;;;;;16.33;13.60;;;18.60;27.70;;;;;;5084193;28;20825;-84
2022/03/04 13:52:57;;;;;;;13.00;11.53;;;18.40;27.20;;;;;;5077775;28;20488;-84
2022/03/04 13:55:51;;;;;;;13.83;12.43;;;18.80;28.00;;;;;;5092526;28;20452;-82
2022/03/04 13:58:19;;;;;;;13.87;12.00;;;19.20;27.50;;;;;;5094860;28;20996;-81
2022/03/04 14:00:52;;;;;;;14.17;12.67;;;19.50;27.40;;;;;;5082065;28;20499;-84
2022/03/04 14:03:25;;;;;;;14.17;12.70;;;19.20;26.60;;;;;;5086386;28;21015;-84
2022/03/04 14:05:59;;;;;;;13.23;12.03;;;19.10;26.70;;;;;;5104295;28;20537;-83
2022/03/04 14:08:57;;;;;;;14.60;13.10;;;19.40;27.30;;;;;;5105202;28;20441;-83
2022/03/04 14:11:25;;;;;;;14.57;13.07;;;19.80;27.20;;;;;;5093289;28;20446;-80
2022/03/04 14:13:53;;;;;;;13.90;12.60;;;20.10;26.90;;;;;;5078928;28;20486;-81
2022/03/04 14:16:21;;;;;;;14.87;11.70;;;20.10;26.70;;;;;;5079625;28;20455;-81
2022/03/04 14:18:48;;;;;;;14.07;12.87;;;20.00;26.30;;;;;;5081463;28;20495;-81
2022/03/04 14:21:14;;;;;;;13.83;12.17;;;20.10;26.20;;;;;;5097648;28;20507;-80
2022/03/04 14:23:42;;;;;;;11.77;9.93;;;20.20;26.30;;;;;;5099976;28;20450;-81
2022/03/04 14:26:10;;;;;;;13.90;12.50;;;20.50;26.50;;;;;;5097650;28;20459;-79
2022/03/04 14:28:38;;;;;;;13.20;11.87;;;20.10;25.30;;;;;;5099571;28;20485;-80
2022/03/04 14:31:08;;;;;;;14.37;11.07;;;19.90;25.80;;;;;;5098036;28;20957;-78
2022/03/04 14:33:35;;;;;;;12.97;11.60;;;17.80;24.70;;;;;;5099688;28;20484;-79
2022/03/04 14:36:02;;;;;;;12.43;11.30;;;17.00;25.80;;;;;;5084321;28;20454;-80
2022/03/04 14:38:31;;;;;;;12.90;11.47;;;17.20;26.80;;;;;;5083233;28;20458;-80
2022/03/04 14:40:57;;;;;;;14.10;12.57;;;16.50;26.70;;;;;;5105728;28;20471;-83
2022/03/04 14:43:25;;;;;;;10.93;9.83;;;16.20;27.70;;;;;;5090167;28;20453;-82
2022/03/04 14:45:54;;;;;;;12.17;10.97;;;16.50;27.80;;;;;;5087116;28;20485;-82
2022/03/04 14:48:21;;;;;;;13.57;10.13;;;16.30;27.70;;;;;;5098475;28;20447;-80
2022/03/04 14:50:48;;;;;;;11.87;10.57;;;16.60;27.70;;;;;;5102590;28;20465;-80
2022/03/04 14:53:15;;;;;;;12.73;11.43;;;17.10;27.50;;;;;;5097688;28;20488;-79
2022/03/04 14:55:42;;;;;;;13.77;12.27;;;17.20;27.90;;;;;;5082608;28;20458;-79
2022/03/04 14:58:09;;;;;;;12.53;11.30;;;16.20;26.60;;;;;;5084706;28;20816;-81
2022/03/04 15:00:37;;;;;;;13.43;12.03;;;15.90;27.60;;;;;;5086443;28;20473;-79
2022/03/04 15:03:05;;;;;;;14.87;12.03;;;15.70;27.90;;;;;;5086687;28;20452;-80
2022/03/04 15:05:32;;;;;;;13.23;11.33;;;15.60;28.30;;;;;;5106209;28;20450;-80
2022/03/04 15:08:00;;;;;;;11.97;10.83;;;15.20;27.90;;;;;;5111661;28;20456;-82
2022/03/04 15:10:26;;;;;;;13.60;11.33;;;15.60;29.10;;;;;;5102374;28;20533;-83
2022/03/04 15:12:55;;;;;;;14.80;12.13;;;15.80;28.20;;;;;;5083180;28;20482;-80
2022/03/04 15:15:21;;;;;;;12.50;11.30;;;16.20;28.10;;;;;;5082244;28;20424;-81
2022/03/04 15:17:52;;;;;;;12.50;10.87;;;16.70;28.00;;;;;;5105180;28;20474;-81
2022/03/04 15:20:23;;;;;;;13.50;10.70;;;16.00;26.70;;;;;;5110979;28;20467;-81
2022/03/04 15:22:50;;;;;;;15.03;11.13;;;16.30;28.10;;;;;;5094927;28;20865;-81
2022/03/04 15:25:17;;;;;;;13.37;12.07;;;16.90;28.30;;;;;;5089771;28;20426;-81
2022/03/04 15:27:44;;;;;;;13.20;10.77;;;16.90;27.10;;;;;;5102018;28;20452;-81
2022/03/04 15:30:13;;;;;;;14.47;11.60;;;16.30;27.10;;;;;;5101098;28;20464;-80
2022/03/04 15:32:40;;;;;;;13.30;11.97;;;15.60;27.60;;;;;;5100903;28;20486;-84
2022/03/04 15:35:08;;;;;;;11.33;10.00;;;16.10;27.90;;;;;;5098847;28;20523;-82
2022/03/04 15:37:37;;;;;;;10.87;9.87;;;16.40;27.70;;;;;;5089867;28;20952;-82
2022/03/04 15:40:10;;;;;;;11.40;9.97;;;15.80;26.90;;;;;;5093564;28;20461;-82
2022/03/04 15:42:37;;;;;;;12.27;11.07;;;16.00;27.70;;;;;;5088480;28;20463;-81
2022/03/04 15:45:05;;;;;;;13.20;11.10;;;16.10;27.80;;;;;;5095164;28;20463;-83
2022/03/04 15:47:32;;;;;;;13.20;10.70;;;15.50;27.70;;;;;;5085484;28;20449;-83
2022/03/04 15:49:59;;;;;;;10.80;9.80;;;14.30;28.00;;;;;;5095938;22;20490;-82
2022/03/04 15:52:33;;;;;;;12.50;10.67;;;14.70;29.30;;;;;;5100155;28;20508;-83
2022/03/04 15:55:02;;;;;;;13.17;11.77;;;14.30;28.90;;;;;;5099303;28;20458;-83